Time;durP1;ratioP1;P1;durP2;ratioP2;P2;SDS_P1;SDS_P2;PMS_P1;PMS_P2;Temp;Humidity;BMP_temperature;BMP_pressure;BME280_temperature;BME280_humidity;BME280_pressure;Samples;Min_cycle;Max_cycle;Signal;HPM_P1;HPM_P2
2022/04/25 00:01:10;;;;;;;15.32;8.00;;;;;;;7.08;82.26;100842.38;5063571;28;20119;-58
2022/04/25 00:03:36;;;;;;;12.70;7.53;;;;;;;7.09;82.55;100843.22;5063354;28;20559;-59
2022/04/25 00:06:02;;;;;;;13.20;7.63;;;;;;;7.04;82.28;100834.66;5063271;28;20506;-59
2022/04/25 00:08:27;;;;;;;15.38;7.78;;;;;;;6.97;82.12;100834.91;5045403;28;20059;-59
2022/04/25 00:10:53;;;;;;;12.85;7.72;;;;;;;6.92;82.56;100836.94;5063380;28;20043;-59
2022/04/25 00:13:18;;;;;;;12.52;7.47;;;;;;;6.77;82.87;100837.66;5044757;28;20036;-59
2022/04/25 00:15:44;;;;;;;14.43;8.10;;;;;;;6.83;82.99;100836.50;5062835;28;20504;-59
2022/04/25 00:18:09;;;;;;;13.00;8.38;;;;;;;6.64;83.58;100841.84;5044871;28;20055;-59
2022/04/25 00:20:36;;;;;;;17.25;8.43;;;;;;;6.67;83.89;100850.50;5044683;28;20045;-59
2022/04/25 00:23:04;;;;;;;13.48;7.45;;;;;;;6.66;83.70;100846.13;5062546;28;20040;-59
2022/04/25 00:25:33;;;;;;;15.45;8.07;;;;;;;6.66;84.08;100851.44;5060990;28;20434;-59
2022/04/25 00:28:00;;;;;;;10.90;7.28;;;;;;;6.72;83.71;100847.63;5062252;28;20047;-59
2022/04/25 00:30:26;;;;;;;12.88;8.68;;;;;;;6.74;83.50;100845.78;5044061;28;20933;-59
2022/04/25 00:32:51;;;;;;;17.65;8.68;;;;;;;6.70;83.64;100838.91;5062586;28;20041;-59
2022/04/25 00:35:17;;;;;;;17.58;9.10;;;;;;;6.89;82.98;100838.91;5060687;28;20059;-59
2022/04/25 00:37:43;;;;;;;14.13;8.80;;;;;;;6.78;83.01;100841.19;5058538;28;20048;-59
2022/04/25 00:40:09;;;;;;;15.88;8.45;;;;;;;6.74;83.91;100841.34;5061151;28;20436;-59
2022/04/25 00:42:35;;;;;;;15.93;8.48;;;;;;;6.62;83.79;100846.34;5061703;28;20052;-59
2022/04/25 00:45:01;;;;;;;12.75;8.13;;;;;;;6.63;83.70;100851.59;5062311;28;20089;-59
2022/04/25 00:47:27;;;;;;;17.52;8.63;;;;;;;6.63;84.22;100845.44;5062456;28;20048;-59
2022/04/25 00:49:52;;;;;;;16.73;9.57;;;;;;;6.73;84.64;100850.22;5062520;28;20653;-59
2022/04/25 00:52:18;;;;;;;14.10;8.40;;;;;;;6.71;84.31;100851.22;5060974;28;20048;-59
2022/04/25 00:54:44;;;;;;;16.30;8.55;;;;;;;6.64;84.56;100844.50;5042186;28;20040;-59
2022/04/25 00:57:10;;;;;;;13.45;8.18;;;;;;;6.57;84.74;100843.06;5043240;28;20472;-60
2022/04/25 00:59:36;;;;;;;14.75;8.77;;;;;;;6.51;84.99;100848.66;5062130;28;20056;-59
2022/04/25 01:02:03;;;;;;;14.82;8.93;;;;;;;6.44;85.36;100841.00;5060544;28;20051;-59
2022/04/25 01:04:29;;;;;;;15.57;8.18;;;;;;;6.47;85.50;100847.91;5061717;28;20569;-59
2022/04/25 01:06:54;;;;;;;17.33;9.00;;;;;;;6.37;85.43;100849.28;5061456;28;20028;-60
2022/04/25 01:09:20;;;;;;;14.60;8.30;;;;;;;6.45;85.41;100840.06;5026764;28;20044;-59
2022/04/25 01:11:45;;;;;;;12.70;8.75;;;;;;;6.38;85.02;100843.06;5061554;28;20375;-59
2022/04/25 01:14:16;;;;;;;16.38;8.80;;;;;;;6.36;85.02;100843.13;5061617;28;20036;-59
2022/04/25 01:16:42;;;;;;;17.50;9.55;;;;;;;6.41;85.36;100842.91;5042981;28;20119;-59
2022/04/25 01:19:08;;;;;;;18.77;9.95;;;;;;;6.47;85.10;100845.28;5061438;28;20519;-59
2022/04/25 01:21:52;;;;;;;13.73;8.52;;;;;;;6.48;85.69;100850.53;5061263;28;20119;-59
2022/04/25 01:27:17;;;;;;;14.85;8.25;;;;;;;6.50;85.12;100847.78;5061243;28;20039;-60
2022/04/25 01:29:43;;;;;;;19.42;9.43;;;;;;;6.38;85.41;100843.06;5061442;28;20048;-59
2022/04/25 01:32:09;;;;;;;15.38;9.88;;;;;;;6.26;85.71;100844.47;5061782;28;20175;-59
2022/04/25 01:34:37;;;;;;;18.90;9.32;;;;;;;6.38;85.79;100846.56;5061558;28;20044;-59
2022/04/25 01:37:05;;;;;;;22.42;9.68;;;;;;;6.25;85.65;100837.47;5062005;28;20051;-59
2022/04/25 01:39:31;;;;;;;16.90;9.07;;;;;;;6.21;86.30;100843.81;5043350;28;20040;-59
2022/04/25 01:41:56;;;;;;;16.83;9.80;;;;;;;6.24;86.04;100835.75;5061704;28;20028;-59
2022/04/25 01:44:22;;;;;;;20.40;10.30;;;;;;;6.21;85.88;100846.47;5061360;28;20067;-59
2022/04/25 01:46:47;;;;;;;21.40;8.70;;;;;;;6.33;85.71;100847.72;5061282;28;20050;-60
2022/04/25 01:49:12;;;;;;;17.98;9.13;;;;;;;6.27;85.25;100851.47;5061008;28;20487;-59
2022/04/25 01:51:41;;;;;;;16.15;9.55;;;;;;;6.36;85.77;100851.06;5061394;28;20040;-59
2022/04/25 01:54:06;;;;;;;17.02;9.48;;;;;;;6.22;86.04;100846.41;5061794;28;20036;-59
2022/04/25 01:56:32;;;;;;;14.20;9.13;;;;;;;6.10;86.37;100852.25;5043139;28;20055;-59
2022/04/25 01:58:57;;;;;;;17.17;9.60;;;;;;;6.20;86.65;100850.06;5059715;28;20086;-59
2022/04/25 02:01:23;;;;;;;17.75;10.30;;;;;;;6.33;85.90;100848.56;5042758;28;20048;-58
2022/04/25 02:03:48;;;;;;;16.15;9.60;;;;;;;6.28;86.12;100845.28;5010057;28;20044;-59
2022/04/25 02:06:14;;;;;;;13.90;8.93;;;;;;;6.20;86.02;100852.69;5061462;28;20163;-59
2022/04/25 02:08:39;;;;;;;19.20;9.57;;;;;;;6.25;86.85;100848.06;5061460;28;20055;-59
2022/04/25 02:11:20;;;;;;;15.95;8.82;;;;;;;6.17;87.42;100847.53;5061337;28;20051;-59
2022/04/25 02:13:46;;;;;;;19.58;10.13;;;;;;;6.25;86.17;100844.56;5061069;28;20144;-59
2022/04/25 02:16:11;;;;;;;18.85;10.25;;;;;;;6.18;86.72;100847.47;5061486;28;20079;-59
2022/04/25 02:18:39;;;;;;;18.00;11.27;;;;;;;6.26;86.91;100841.81;5061397;28;20044;-59
2022/04/25 02:21:05;;;;;;;21.67;10.68;;;;;;;6.31;86.99;100839.81;5044892;28;20056;-59
2022/04/25 02:23:30;;;;;;;15.27;9.35;;;;;;;6.38;86.94;100848.38;5059474;28;20623;-59
2022/04/25 02:25:56;;;;;;;17.60;9.60;;;;;;;6.29;86.87;100839.03;5061730;28;20040;-59
2022/04/25 02:28:21;;;;;;;20.13;10.75;;;;;;;6.22;87.25;100841.13;5060944;28;20094;-59
2022/04/25 02:30:47;;;;;;;20.77;10.20;;;;;;;6.18;88.04;100841.34;5060604;28;20033;-59
2022/04/25 02:33:12;;;;;;;20.10;10.68;;;;;;;6.37;87.19;100839.53;5060542;28;20037;-59
2022/04/25 02:35:37;;;;;;;17.75;10.25;;;;;;;6.38;87.21;100837.78;5060249;28;20036;-58
2022/04/25 02:38:03;;;;;;;19.15;10.20;;;;;;;6.31;87.58;100836.31;5060213;28;20381;-59
2022/04/25 02:40:28;;;;;;;19.80;10.35;;;;;;;6.35;87.41;100838.75;5059791;28;20469;-59
2022/04/25 02:42:54;;;;;;;18.73;9.63;;;;;;;6.37;86.83;100841.31;5041529;28;20835;-59
2022/04/25 02:45:19;;;;;;;18.35;11.00;;;;;;;6.38;86.79;100835.97;5060618;28;20040;-59
2022/04/25 02:47:44;;;;;;;23.05;11.57;;;;;;;6.36;87.43;100827.22;5060494;28;20032;-59
2022/04/25 02:50:10;;;;;;;19.23;11.65;;;;;;;6.31;87.98;100833.66;5060203;28;20786;-59
2022/04/25 02:52:35;;;;;;;27.75;10.95;;;;;;;6.20;88.08;100832.38;5042278;28;20049;-59
2022/04/25 02:55:01;;;;;;;17.55;10.05;;;;;;;6.33;87.00;100835.34;5041751;28;20044;-59
2022/04/25 02:57:26;;;;;;;23.38;11.60;;;;;;;6.32;87.63;100835.38;5059729;28;20802;-58
2022/04/25 02:59:52;;;;;;;21.05;10.90;;;;;;;6.20;88.13;100831.53;5040268;28;20098;-59
2022/04/25 03:02:17;;;;;;;20.42;10.15;;;;;;;6.17;87.99;100836.94;5040235;28;20056;-58
2022/04/25 03:04:43;;;;;;;21.75;12.35;;;;;;;6.15;88.56;100842.31;5040160;28;20029;-59
2022/04/25 03:07:08;;;;;;;20.25;10.95;;;;;;;6.19;88.29;100837.75;5039845;28;20768;-59
2022/04/25 03:09:33;;;;;;;24.58;11.80;;;;;;;6.11;88.75;100851.31;5040205;28;20044;-59
2022/04/25 03:11:59;;;;;;;18.60;11.35;;;;;;;6.04;88.10;100846.38;5022485;28;20109;-59
2022/04/25 03:14:26;;;;;;;19.85;10.57;;;;;;;6.03;88.39;100850.81;5039872;28;20292;-59
2022/04/25 03:16:51;;;;;;;21.25;11.90;;;;;;;6.04;88.67;100854.31;5040154;28;20912;-59
2022/04/25 03:19:18;;;;;;;21.23;12.27;;;;;;;6.22;88.48;100850.81;5040206;28;20118;-59
2022/04/25 03:21:43;;;;;;;23.75;12.43;;;;;;;6.16;88.85;100854.63;5049920;28;20048;-59
2022/04/25 03:24:09;;;;;;;19.63;11.20;;;;;;;6.17;89.08;100860.78;5060126;28;20039;-59
2022/04/25 03:26:34;;;;;;;19.02;11.40;;;;;;;6.28;87.98;100852.38;5062774;28;20053;-59
2022/04/25 03:29:00;;;;;;;27.00;12.35;;;;;;;6.38;88.63;100849.22;5064267;28;20111;-59
2022/04/25 03:31:25;;;;;;;20.60;12.18;;;;;;;6.31;88.57;100858.38;5063516;28;20047;-59
2022/04/25 03:33:50;;;;;;;20.40;11.80;;;;;;;6.27;88.84;100858.56;5062237;28;20790;-59
2022/04/25 03:36:17;;;;;;;25.60;12.43;;;;;;;6.28;89.04;100862.97;5063733;28;20090;-59
2022/04/25 03:38:43;;;;;;;23.83;12.40;;;;;;;6.28;88.93;100863.81;5063687;28;20051;-59
2022/04/25 03:41:09;;;;;;;22.63;11.85;;;;;;;6.31;89.05;100858.38;5063727;28;20036;-59
2022/04/25 03:43:34;;;;;;;20.23;11.75;;;;;;;6.43;88.07;100857.81;5063637;28;20057;-58
2022/04/25 03:46:00;;;;;;;26.13;11.95;;;;;;;6.42;88.36;100864.03;5063271;28;20094;-59
2022/04/25 03:48:26;;;;;;;26.10;12.77;;;;;;;6.47;88.49;100869.97;5063660;28;20075;-59
2022/04/25 03:50:51;;;;;;;21.55;12.05;;;;;;;6.42;88.57;100863.16;5063717;28;20477;-59
2022/04/25 03:53:17;;;;;;;26.60;12.88;;;;;;;6.45;88.59;100866.53;5063836;28;20081;-59
2022/04/25 03:58:27;;;;;;;28.27;13.73;;;;;;;6.51;88.65;100873.34;5063624;28;20036;-59
2022/04/25 04:00:53;;;;;;;27.05;12.43;;;;;;;6.48;89.88;100873.50;5063425;28;20131;-59
2022/04/25 04:03:19;;;;;;;25.95;13.57;;;;;;;6.52;89.41;100871.56;5063701;28;20558;-58
2022/04/25 04:05:49;;;;;;;23.58;12.50;;;;;;;6.55;88.85;100879.38;5063900;28;20047;-59
2022/04/25 04:08:15;;;;;;;24.23;13.05;;;;;;;6.57;89.69;100874.84;5063544;28;20681;-59
2022/04/25 04:10:41;;;;;;;24.67;13.27;;;;;;;6.62;89.19;100879.00;5044866;28;20051;-59
2022/04/25 04:13:07;;;;;;;25.23;13.57;;;;;;;6.66;89.50;100875.28;5063775;28;20040;-59
2022/04/25 04:15:32;;;;;;;23.08;12.88;;;;;;;6.64;89.40;100873.66;5063998;28;20137;-59
2022/04/25 04:17:58;;;;;;;25.48;12.68;;;;;;;6.63;90.00;100882.53;5045735;28;20473;-59
2022/04/25 04:20:23;;;;;;;29.38;13.95;;;;;;;6.67;89.39;100881.44;5045550;28;20043;-59
2022/04/25 04:22:49;;;;;;;25.60;13.50;;;;;;;6.71;89.90;100878.56;5044719;28;20044;-58
2022/04/25 04:25:14;;;;;;;28.27;14.02;;;;;;;6.77;89.32;100877.41;5063636;28;20048;-59
2022/04/25 04:27:41;;;;;;;26.02;13.27;;;;;;;6.84;89.64;100888.63;5061972;28;20082;-59
2022/04/25 04:30:12;;;;;;;25.27;12.35;;;;;;;6.83;89.84;100882.47;5063534;28;20055;-58
2022/04/25 04:32:40;;;;;;;25.38;13.02;;;;;;;6.85;89.89;100885.88;5044940;28;20064;-59
2022/04/25 04:35:09;;;;;;;28.30;14.00;;;;;;;6.90;90.45;100885.66;5062971;28;20534;-58
2022/04/25 04:37:36;;;;;;;26.38;14.25;;;;;;;6.92;90.03;100887.31;5062214;28;20048;-59
2022/04/25 04:42:48;;;;;;;29.63;14.88;;;;;;;7.01;89.94;100894.81;5057474;28;20052;-59
2022/04/25 04:45:13;;;;;;;29.80;15.05;;;;;;;7.09;89.87;100897.13;5062750;28;20047;-59
2022/04/25 04:47:41;;;;;;;28.50;14.27;;;;;;;7.11;89.58;100895.25;5062619;28;20828;-59
2022/04/25 04:50:17;;;;;;;30.80;15.25;;;;;;;7.04;90.03;100899.13;5062301;28;20043;-59
2022/04/25 04:52:47;;;;;;;31.58;16.05;;;;;;;7.12;90.32;100904.06;5044881;28;20060;-59
2022/04/25 04:55:13;;;;;;;28.75;14.70;;;;;;;7.20;90.21;100900.09;5063295;28;20044;-59
2022/04/25 04:57:39;;;;;;;36.25;17.13;;;;;;;7.17;90.19;100910.00;5044196;28;20791;-59
2022/04/25 05:00:06;;;;;;;27.45;16.27;;;;;;;7.22;90.14;100911.47;5062714;28;20044;-59
2022/04/25 05:02:32;;;;;;;34.80;17.00;;;;;;;7.23;90.74;100918.53;5062622;28;20028;-59
2022/04/25 05:04:57;;;;;;;39.78;17.60;;;;;;;7.28;90.28;100920.97;5062705;28;20580;-59
2022/04/25 05:07:23;;;;;;;35.22;17.17;;;;;;;7.29;90.41;100925.34;5062873;28;20043;-59
2022/04/25 05:09:48;;;;;;;43.38;18.52;;;;;;;7.32;90.74;100916.34;5062794;28;20457;-57
2022/04/25 05:12:14;;;;;;;38.22;18.80;;;;;;;7.30;91.09;100929.69;5036965;23;20241;-63
2022/04/25 05:14:40;;;;;;;44.22;20.42;;;;;;;7.31;90.09;100931.41;5003602;28;20615;-63
2022/04/25 05:17:06;;;;;;;37.58;18.63;;;;;;;7.31;90.57;100930.56;5002981;28;20038;-63
2022/04/25 05:19:31;;;;;;;34.13;17.10;;;;;;;7.30;90.45;100940.31;4999078;28;20041;-63
2022/04/25 05:21:57;;;;;;;40.17;19.15;;;;;;;7.32;90.10;100940.22;4998503;28;20844;-64
2022/04/25 05:24:22;;;;;;;42.38;21.92;;;;;;;7.35;90.54;100935.63;5002270;28;20033;-63
2022/04/25 05:26:48;;;;;;;37.67;19.02;;;;;;;7.34;90.46;100941.03;5002850;28;20385;-63
2022/04/25 05:29:16;;;;;;;43.55;21.02;;;;;;;7.34;90.86;100944.53;4999874;28;20038;-63
2022/04/25 05:31:42;;;;;;;41.85;19.65;;;;;;;7.37;90.48;100946.16;5002361;28;20150;-63
2022/04/25 05:34:09;;;;;;;38.38;20.20;;;;;;;7.45;89.70;100954.63;5000864;28;20540;-63
2022/04/25 05:36:34;;;;;;;45.42;20.90;;;;;;;7.44;89.76;100951.13;5003905;28;20100;-63
2022/04/25 05:47:20;;;;;;;53.05;23.40;;;;;;;7.54;88.84;100967.44;4991076;28;20044;-64
2022/04/25 05:52:39;;;;;;;47.67;21.67;;;;;;;7.56;89.18;100972.66;5000468;28;20037;-64
2022/04/25 05:55:05;;;;;;;49.58;24.20;;;;;;;7.59;88.69;100977.84;4996900;28;20044;-63
2022/04/25 05:57:31;;;;;;;41.50;22.70;;;;;;;7.58;88.21;100979.63;4984856;28;20422;-63
2022/04/25 05:59:56;;;;;;;48.17;23.38;;;;;;;7.59;88.57;100977.84;5002542;28;20042;-63
2022/04/25 06:02:22;;;;;;;46.72;24.30;;;;;;;7.62;88.21;100972.38;5001062;28;20049;-63
2022/04/25 06:04:47;;;;;;;48.40;24.45;;;;;;;7.63;87.97;100982.94;5001967;28;20038;-64
2022/04/25 06:07:12;;;;;;;46.00;22.00;;;;;;;7.67;87.92;100979.16;4987919;28;20050;-63
2022/04/25 06:09:38;;;;;;;45.80;21.45;;;;;;;7.68;87.68;100975.59;4982736;28;20046;-63
2022/04/25 06:12:04;;;;;;;38.97;20.33;;;;;;;7.76;87.94;100977.84;4997315;28;20427;-64
2022/04/25 06:14:34;;;;;;;49.35;23.25;;;;;;;7.75;87.60;100994.72;4983360;28;20042;-64
2022/04/25 06:17:00;;;;;;;45.55;24.23;;;;;;;7.68;88.53;100988.88;4998608;28;20065;-63
2022/04/25 06:19:26;;;;;;;42.53;22.52;;;;;;;7.70;88.53;100984.34;4998219;28;20180;-64
2022/04/25 06:21:52;;;;;;;51.33;24.35;;;;;;;7.71;88.25;100994.00;4994606;28;20046;-63
2022/04/25 06:24:18;;;;;;;43.72;22.13;;;;;;;7.67;87.76;100995.09;5002507;28;20125;-63
2022/04/25 06:26:43;;;;;;;49.47;23.30;;;;;;;7.61;88.00;100994.53;5000379;28;20072;-63
2022/04/25 06:29:08;;;;;;;55.05;22.73;;;;;;;7.64;88.98;100995.25;5001750;28;20038;-63
2022/04/25 06:31:34;;;;;;;51.80;22.83;;;;;;;7.47;89.12;101003.16;5001971;28;20084;-63
2022/04/25 06:34:00;;;;;;;46.97;21.15;;;;;;;7.48;89.31;100994.25;5002112;28;20094;-63
2022/04/25 06:36:26;;;;;;;46.30;22.38;;;;;;;7.36;91.03;100994.84;5000544;28;20061;-63
2022/04/25 06:38:51;;;;;;;52.10;24.58;;;;;;;7.33;91.43;101005.59;4994061;28;20145;-63
2022/04/25 06:41:17;;;;;;;46.13;23.38;;;;;;;7.21;92.27;101007.91;4982165;28;20545;-63
2022/04/25 06:43:42;;;;;;;48.92;24.45;;;;;;;7.29;92.38;101012.84;4981943;28;20065;-63
2022/04/25 06:46:08;;;;;;;52.65;22.80;;;;;;;7.24;92.88;101009.56;4992109;28;20046;-64
2022/04/25 06:48:34;;;;;;;55.30;25.90;;;;;;;7.30;93.37;101011.91;5001871;28;20038;-63
2022/04/25 06:51:00;;;;;;;56.53;26.35;;;;;;;7.23;93.75;101011.34;5001562;28;20028;-64
2022/04/25 06:53:26;;;;;;;58.35;26.13;;;;;;;7.36;93.60;101024.03;5001183;28;20788;-64
2022/04/25 06:55:52;;;;;;;53.65;25.30;;;;;;;7.27;94.25;101022.66;5001244;28;20042;-64
2022/04/25 06:58:17;;;;;;;60.25;26.27;;;;;;;7.26;94.41;101032.41;5001433;28;20064;-64
2022/04/25 07:00:43;;;;;;;60.50;27.27;;;;;;;7.22;95.08;101033.47;5000659;28;20080;-64
2022/04/25 07:03:09;;;;;;;58.38;24.60;;;;;;;7.19;94.82;101027.47;5001517;28;20045;-64
2022/04/25 07:05:35;;;;;;;58.55;26.25;;;;;;;7.19;94.53;101032.78;5001630;28;20049;-64
2022/04/25 07:08:00;;;;;;;56.30;26.45;;;;;;;7.18;94.61;101036.38;4999898;28;20756;-64
2022/04/25 07:10:26;;;;;;;50.15;23.67;;;;;;;7.07;94.91;101039.50;4999925;28;20034;-64
2022/04/25 07:12:52;;;;;;;50.45;24.25;;;;;;;7.06;94.74;101044.88;5001556;28;20065;-64
2022/04/25 07:15:19;;;;;;;49.67;23.08;;;;;;;7.01;94.72;101040.63;5000085;28;20077;-65
2022/04/25 07:17:45;;;;;;;40.85;20.98;;;;;;;6.99;94.21;101041.66;5000515;28;20140;-65
2022/04/25 07:20:10;;;;;;;53.15;23.17;;;;;;;6.98;94.12;101040.78;5001715;28;20072;-65
2022/04/25 07:30:48;;;;;;;48.22;21.30;;;;;;;6.94;94.45;101044.50;5001985;28;20827;-64
2022/04/25 07:33:14;;;;;;;41.58;22.27;;;;;;;7.02;95.00;101044.16;5002052;28;20061;-64
2022/04/25 07:35:39;;;;;;;51.35;23.60;;;;;;;7.11;93.36;101046.38;5000040;28;20509;-64
2022/04/25 07:38:05;;;;;;;46.65;21.42;;;;;;;7.19;93.53;101043.41;5001388;28;20449;-65
2022/04/25 07:40:31;;;;;;;46.90;21.20;;;;;;;7.08;92.97;101051.84;4999862;28;20092;-64
2022/04/25 07:42:57;;;;;;;45.78;20.33;;;;;;;7.12;93.74;101047.25;4983390;28;20041;-64
2022/04/25 07:45:23;;;;;;;48.45;21.25;;;;;;;7.29;93.99;101049.13;5001125;28;20049;-65
2022/04/25 07:47:48;;;;;;;45.95;21.63;;;;;;;7.32;92.72;101057.78;4999326;28;20050;-65
2022/04/25 07:50:15;;;;;;;52.13;23.80;;;;;;;7.16;93.15;101051.47;5001789;28;20038;-65
2022/04/25 07:52:41;;;;;;;63.72;22.52;;;;;;;7.26;92.96;101058.94;4998392;28;20121;-65
2022/04/25 07:55:07;;;;;;;48.08;22.77;;;;;;;7.21;92.81;101060.94;4999906;28;20153;-65
2022/04/25 07:57:33;;;;;;;53.17;22.98;;;;;;;7.28;92.60;101066.84;5000012;28;20053;-65
2022/04/25 07:59:59;;;;;;;47.55;22.77;;;;;;;7.33;92.77;101064.84;4994128;28;20688;-65
2022/04/25 08:02:24;;;;;;;54.00;23.10;;;;;;;7.26;92.85;101072.19;4999917;28;20116;-65
2022/04/25 08:04:50;;;;;;;52.33;23.75;;;;;;;7.23;92.57;101068.84;5001306;28;20438;-65
2022/04/25 08:07:16;;;;;;;49.95;23.35;;;;;;;7.26;93.29;101063.38;5001109;28;20731;-64
2022/04/25 08:09:42;;;;;;;54.53;22.55;;;;;;;7.19;92.70;101059.31;5001226;28;20034;-64
2022/04/25 08:20:21;;;;;;;53.20;24.63;;;;;;;7.36;91.71;101080.59;5004527;28;20041;-64
2022/04/25 08:22:46;;;;;;;49.50;22.60;;;;;;;7.50;91.81;101087.91;5002937;28;20589;-64
2022/04/25 08:25:13;;;;;;;46.47;22.42;;;;;;;7.52;91.18;101089.56;5004472;28;20414;-64
2022/04/25 08:27:39;;;;;;;54.88;23.67;;;;;;;7.74;92.05;101084.13;5004393;28;20628;-65
2022/04/25 08:30:04;;;;;;;57.90;24.23;;;;;;;7.69;91.16;101099.41;5004887;28;20054;-64
2022/04/25 08:32:33;;;;;;;59.50;25.50;;;;;;;7.66;91.15;101101.34;5004932;28;20042;-64
2022/04/25 08:35:00;;;;;;;52.45;24.88;;;;;;;7.52;90.28;101097.50;5003356;28;20034;-64
2022/04/25 08:37:27;;;;;;;48.55;23.52;;;;;;;7.62;90.78;101099.75;5004707;28;20045;-64
2022/04/25 08:39:52;;;;;;;53.60;24.73;;;;;;;7.58;91.17;101107.00;5004788;28;20049;-64
2022/04/25 08:42:19;;;;;;;52.85;24.00;;;;;;;7.54;91.20;101105.44;5004526;28;20061;-64
2022/04/25 08:44:46;;;;;;;48.97;23.45;;;;;;;7.60;90.11;101101.63;5004963;28;20425;-64
2022/04/25 08:47:14;;;;;;;50.22;25.00;;;;;;;7.74;90.58;101102.69;5004487;28;20446;-64
2022/04/25 08:49:40;;;;;;;49.53;23.15;;;;;;;7.87;90.63;101113.56;5004334;28;20108;-64
2022/04/25 08:52:06;;;;;;;52.28;22.90;;;;;;;7.96;88.63;101118.44;5004018;28;20509;-64
2022/04/25 08:54:32;;;;;;;56.70;23.58;;;;;;;8.05;89.73;101119.81;5004408;28;20250;-64
2022/04/25 08:56:58;;;;;;;51.40;22.17;;;;;;;8.13;88.42;101117.63;5004389;28;20095;-64
2022/04/25 08:59:26;;;;;;;56.63;23.35;;;;;;;8.11;88.34;101121.31;5004071;28;20041;-64
2022/04/25 09:01:53;;;;;;;47.83;21.98;;;;;;;8.26;89.01;101120.56;5004349;28;20403;-64
2022/04/25 09:04:19;;;;;;;52.17;21.55;;;;;;;8.20;87.06;101121.72;5004182;28;20038;-65
2022/04/25 09:06:48;;;;;;;45.80;22.10;;;;;;;8.29;87.88;101123.94;5002852;28;20038;-64
2022/04/25 09:09:14;;;;;;;44.72;21.27;;;;;;;8.30;87.93;101135.41;5002256;28;20049;-64
2022/04/25 09:14:24;;;;;;;40.92;21.40;;;;;;;8.24;86.73;101146.34;5003631;28;20120;-64
2022/04/25 09:16:50;;;;;;;44.85;21.23;;;;;;;8.00;87.58;101154.56;5002301;28;20486;-64
2022/04/25 09:19:15;;;;;;;46.90;20.77;;;;;;;8.09;88.31;101153.25;5003029;28;20553;-64
2022/04/25 09:21:43;;;;;;;41.78;21.65;;;;;;;8.11;87.32;101156.69;4997889;28;20181;-65
2022/04/25 09:24:21;;;;;;;45.45;20.88;;;;;;;8.29;88.83;101152.28;5002491;28;20034;-64
2022/04/25 09:26:51;;;;;;;44.70;21.70;;;;;;;8.54;88.38;101158.16;4982218;28;20092;-64
2022/04/25 09:29:26;;;;;;;44.83;20.33;;;;;;;8.45;85.92;101155.09;4997496;28;20046;-63
2022/04/25 09:31:51;;;;;;;36.80;18.70;;;;;;;8.29;85.23;101165.59;5001120;28;20033;-64
2022/04/25 09:34:59;;;;;;;48.75;20.80;;;;;;;8.49;85.69;101157.53;4999550;28;20495;-64
2022/04/25 09:37:06;;;;;;;39.22;19.40;;;;;;;8.51;86.34;101157.44;4989415;28;20604;-64
2022/04/25 09:39:32;;;;;;;41.53;19.13;;;;;;;8.68;85.65;101162.75;4987574;28;20091;-64
2022/04/25 09:41:58;;;;;;;44.88;21.08;;;;;;;8.81;85.57;101153.22;5001611;28;20037;-64
2022/04/25 09:44:23;;;;;;;43.28;20.30;;;;;;;8.78;85.04;101155.19;5009373;28;20073;-64
2022/04/25 09:46:49;;;;;;;39.65;20.60;;;;;;;8.95;84.05;101149.88;4999006;28;20038;-64
2022/04/25 09:49:21;;;;;;;45.20;21.25;;;;;;;9.12;83.51;101150.78;5003474;28;20034;-64
2022/04/25 09:52:08;;;;;;;38.08;19.70;;;;;;;9.16;84.03;101160.34;5002033;28;20049;-64
2022/04/25 09:54:33;;;;;;;46.92;21.45;;;;;;;9.05;82.89;101158.22;5003582;28;20189;-64
2022/04/25 09:56:59;;;;;;;39.92;20.63;;;;;;;9.27;83.76;101153.50;5003838;28;20276;-64
2022/04/25 09:59:25;;;;;;;42.50;20.55;;;;;;;9.02;83.32;101161.91;5002687;28;20487;-63
2022/04/25 10:02:06;;;;;;;35.22;18.58;;;;;;;8.95;84.87;101163.16;4998072;28;20739;-63
2022/04/25 10:04:34;;;;;;;40.40;19.80;;;;;;;8.80;83.74;101178.09;5002979;28;20052;-64
2022/04/25 10:07:01;;;;;;;38.38;19.77;;;;;;;8.65;84.41;101173.56;5000394;28;20085;-64
2022/04/25 10:09:31;;;;;;;35.80;17.38;;;;;;;8.65;84.66;101172.69;4998948;28;20554;-63
2022/04/25 10:11:58;;;;;;;37.10;19.67;;;;;;;8.63;85.38;101175.41;4996490;28;20495;-63
2022/04/25 10:14:25;;;;;;;38.40;18.42;;;;;;;8.69;84.61;101176.94;4990464;28;20490;-63
2022/04/25 10:16:51;;;;;;;38.75;19.38;;;;;;;9.08;84.33;101172.22;5002462;28;20115;-64
2022/04/25 10:19:16;;;;;;;34.50;18.73;;;;;;;9.18;82.74;101174.41;4995679;28;20045;-63
2022/04/25 10:21:42;;;;;;;36.28;18.08;;;;;;;9.29;81.75;101178.25;5000703;28;20513;-63
2022/04/25 10:24:09;;;;;;;31.55;17.00;;;;;;;9.58;81.67;101179.31;4996779;28;20050;-63
2022/04/25 10:26:35;;;;;;;35.83;18.42;;;;;;;9.71;79.41;101178.69;5001382;28;20042;-64
2022/04/25 10:29:13;;;;;;;33.72;16.75;;;;;;;10.19;80.06;101176.91;5002230;28;20041;-63
2022/04/25 10:31:42;;;;;;;32.15;16.35;;;;;;;10.04;80.60;101176.84;5002090;28;20034;-64
2022/04/25 10:34:09;;;;;;;39.40;17.33;;;;;;;9.44;78.76;101184.56;4999748;28;20042;-64
2022/04/25 10:36:40;;;;;;;32.33;16.27;;;;;;;9.75;80.90;101181.09;5001796;28;20073;-63
2022/04/25 10:39:19;;;;;;;32.50;16.90;;;;;;;9.34;79.83;101178.00;4992317;28;20714;-64
2022/04/25 10:44:42;;;;;;;34.03;17.10;;;;;;;9.56;80.65;101186.56;4982421;28;20038;-63
2022/04/25 10:47:11;;;;;;;35.05;17.60;;;;;;;9.28;81.14;101188.94;4982107;28;20793;-64
2022/04/25 10:49:38;;;;;;;29.60;17.20;;;;;;;9.40;81.00;101187.47;4982607;28;20052;-64
2022/04/25 10:52:05;;;;;;;29.88;16.30;;;;;;;9.29;80.44;101191.53;4982497;28;20073;-64
2022/04/25 10:54:51;;;;;;;33.72;17.60;;;;;;;9.29;81.85;101196.00;4982075;28;20046;-64
2022/04/25 10:57:18;;;;;;;32.47;17.05;;;;;;;9.10;81.52;101198.75;4999883;28;20116;-64
2022/04/25 10:59:44;;;;;;;36.58;17.33;;;;;;;9.05;81.00;101199.00;5001692;28;20696;-64
2022/04/25 11:02:27;;;;;;;30.55;16.58;;;;;;;9.22;81.58;101200.78;5001205;28;20858;-63
2022/04/25 11:05:11;;;;;;;37.00;17.83;;;;;;;9.15;80.63;101207.38;5001397;28;20057;-63
2022/04/25 11:07:41;;;;;;;33.92;17.52;;;;;;;9.14;81.64;101208.31;4999485;28;20806;-63
2022/04/25 11:10:09;;;;;;;40.97;17.40;;;;;;;9.23;81.03;101210.47;5001179;28;20092;-63
2022/04/25 11:12:59;;;;;;;36.53;16.58;;;;;;;9.31;80.89;101213.59;5001498;28;20092;-63
2022/04/25 11:15:48;;;;;;;33.70;17.25;;;;;;;9.30;80.33;101219.00;4999206;28;20041;-64
2022/04/25 11:18:33;;;;;;;36.38;16.65;;;;;;;9.10;81.38;101216.53;4983761;28;20095;-64
2022/04/25 11:21:30;;;;;;;32.03;15.25;;;;;;;9.32;80.71;101209.13;5000533;28;20037;-63
2022/04/25 11:23:57;;;;;;;26.02;14.95;;;;;;;9.17;80.49;101210.78;4998829;28;20050;-64
2022/04/25 11:26:22;;;;;;;28.25;14.07;;;;;;;9.05;80.26;101209.63;4999252;28;20042;-64
2022/04/25 11:28:54;;;;;;;29.02;14.73;;;;;;;9.11;79.95;101210.25;4999154;28;20882;-62
2022/04/25 11:31:21;;;;;;;31.35;14.82;;;;;;;9.34;80.85;101215.25;5000534;28;20030;-64
2022/04/25 11:33:48;;;;;;;28.95;14.60;;;;;;;9.64;79.14;101220.78;5000851;28;20042;-64
2022/04/25 11:36:14;;;;;;;30.45;14.68;;;;;;;9.43;78.59;101214.75;5000214;28;20119;-65
2022/04/25 11:41:35;;;;;;;26.58;13.95;;;;;;;10.08;77.48;101228.13;4984971;28;20145;-65
2022/04/25 11:44:01;;;;;;;24.90;12.88;;;;;;;10.06;77.96;101225.56;4995845;28;20052;-65
2022/04/25 11:46:28;;;;;;;23.05;12.38;;;;;;;10.29;76.90;101231.44;4984373;28;20042;-65
2022/04/25 11:48:54;;;;;;;27.52;13.23;;;;;;;10.41;75.61;101225.44;4986016;28;20030;-65
2022/04/25 11:51:33;;;;;;;21.00;12.38;;;;;;;10.06;75.55;101232.69;5004697;28;20041;-65
2022/04/25 11:54:01;;;;;;;24.95;12.70;;;;;;;10.56;75.31;101229.88;4986650;28;20053;-65
2022/04/25 11:56:28;;;;;;;30.35;14.07;;;;;;;10.27;74.90;101230.66;5002754;28;20058;-64
2022/04/25 11:58:55;;;;;;;23.88;13.73;;;;;;;10.24;77.71;101238.81;5003960;28;20046;-65
2022/04/25 12:01:40;;;;;;;22.30;13.30;;;;;;;10.33;77.35;101236.50;5002564;28;20034;-65
2022/04/25 12:04:24;;;;;;;26.73;13.10;;;;;;;10.09;78.01;101245.81;5003425;28;20457;-65